Time;durP1;ratioP1;P1;durP2;ratioP2;P2;SDS_P1;SDS_P2;PMS_P1;PMS_P2;Temp;Humidity;BMP_temperature;BMP_pressure;BME280_temperature;BME280_humidity;BME280_pressure;Samples;Min_cycle;Max_cycle;Signal;HPM_P1;HPM_P2
2022/01/22 00:00:40;;;;;;;;;;;;;;;18.40;43.21;101225.69;2082235;28;20056;-41
2022/01/22 00:01:43;;;;;;;;;;;;;;;18.39;43.07;101223.94;2078739;28;19996;-41
2022/01/22 00:02:44;;;;;;;;;;;;;;;18.39;43.22;101226.66;2083497;28;19967;-41
2022/01/22 00:03:44;;;;;;;;;;;;;;;18.38;43.13;101219.47;2082379;28;19969;-43
2022/01/22 00:04:44;;;;;;;;;;;;;;;18.37;43.00;101223.22;2078881;28;19932;-41
2022/01/22 00:05:45;;;;;;;;;;;;;;;18.37;43.23;101225.94;2084619;28;21427;-41
2022/01/22 00:06:46;;;;;;;;;;;;;;;18.37;43.09;101225.94;2080519;28;19932;-41
2022/01/22 00:07:46;;;;;;;;;;;;;;;18.36;42.94;101232.38;2076672;28;19992;-41
2022/01/22 00:08:47;;;;;;;;;;;;;;;18.36;42.99;101232.38;2082470;28;19928;-41
2022/01/22 00:09:51;;;;;;;;;;;;;;;18.37;43.22;101231.41;2081662;28;19956;-41
2022/01/22 00:10:52;;;;;;;;;;;;;;;18.35;43.08;101233.38;2081843;28;20209;-41
2022/01/22 00:11:53;;;;;;;;;;;;;;;18.37;43.13;101235.97;2083533;28;19916;-42
2022/01/22 00:15:20;;;;;;;;;;;;;;;18.36;43.13;101235.09;2081309;28;19963;-41
2022/01/22 00:16:20;;;;;;;;;;;;;;;18.36;43.06;101234.25;2082351;28;19921;-41
2022/01/22 00:17:21;;;;;;;;;;;;;;;18.36;42.99;101243.28;2081799;28;20029;-41
2022/01/22 00:18:21;;;;;;;;;;;;;;;18.36;42.98;101246.03;2083054;28;19915;-42
2022/01/22 00:19:22;;;;;;;;;;;;;;;18.34;42.77;101242.53;2083127;28;19953;-42
2022/01/22 00:20:23;;;;;;;;;;;;;;;18.35;42.98;101246.16;2078251;28;20023;-41
2022/01/22 00:21:24;;;;;;;;;;;;;;;18.35;42.67;101243.44;2085351;28;19928;-42
2022/01/22 00:22:28;;;;;;;;;;;;;;;18.35;42.86;101238.84;2076319;28;20241;-41
2022/01/22 00:23:29;;;;;;;;;;;;;;;18.34;42.71;101242.53;2079643;28;19917;-41
2022/01/22 00:24:37;;;;;;;;;;;;;;;18.33;42.83;101234.47;2082339;28;19982;-41
2022/01/22 00:25:37;;;;;;;;;;;;;;;18.33;42.83;101235.34;2081658;28;19912;-41
2022/01/22 00:26:37;;;;;;;;;;;;;;;18.32;42.86;101241.78;2082899;28;19931;-41
2022/01/22 00:27:39;;;;;;;;;;;;;;;18.32;43.02;101243.63;2081969;28;20378;-42
2022/01/22 00:28:39;;;;;;;;;;;;;;;18.31;42.77;101242.78;2081935;28;19920;-42
2022/01/22 00:29:39;;;;;;;;;;;;;;;18.31;42.97;101234.59;2080871;28;19959;-42
2022/01/22 00:30:40;;;;;;;;;;;;;;;18.31;42.81;101241.91;2082508;28;20396;-41
2022/01/22 00:31:41;;;;;;;;;;;;;;;18.30;42.89;101246.50;2082154;28;20456;-41
2022/01/22 00:32:41;;;;;;;;;;;;;;;18.30;42.73;101241.03;2082240;28;20259;-41
2022/01/22 00:33:41;;;;;;;;;;;;;;;18.30;42.96;101246.50;2079446;28;19920;-41
2022/01/22 00:34:42;;;;;;;;;;;;;;;18.28;42.98;101245.75;2077340;28;19921;-42
2022/01/22 00:35:43;;;;;;;;;;;;;;;18.27;42.90;101243.97;2078889;28;20462;-41
2022/01/22 00:36:43;;;;;;;;;;;;;;;18.28;42.88;101237.56;2083358;28;19931;-41
2022/01/22 00:37:45;;;;;;;;;;;;;;;18.27;42.66;101238.53;2081766;28;20307;-41
2022/01/22 00:38:45;;;;;;;;;;;;;;;18.28;42.92;101243.03;2083028;28;19966;-41
2022/01/22 00:39:46;;;;;;;;;;;;;;;18.28;42.96;101237.56;2081350;28;19978;-41
2022/01/22 00:40:51;;;;;;;;;;;;;;;18.27;42.67;101241.25;2082286;28;19947;-41
2022/01/22 00:41:51;;;;;;;;;;;;;;;18.28;42.70;101237.56;2079724;28;20345;-42
2022/01/22 00:42:51;;;;;;;;;;;;;;;18.28;42.56;101237.56;2083557;28;20248;-42
2022/01/22 00:43:53;;;;;;;;;;;;;;;18.28;42.65;101232.09;2081078;28;20481;-41
2022/01/22 00:44:54;;;;;;;;;;;;;;;18.29;42.58;101238.41;2083205;28;20321;-41
2022/01/22 00:45:54;;;;;;;;;;;;;;;18.28;42.64;101234.81;2081499;28;20311;-41
2022/01/22 00:46:54;;;;;;;;;;;;;;;18.28;42.65;101237.56;2084104;28;19927;-41
2022/01/22 00:47:55;;;;;;;;;;;;;;;18.29;42.65;101239.28;2082511;28;19920;-41
2022/01/22 00:48:55;;;;;;;;;;;;;;;18.29;42.57;101239.28;2080021;28;20270;-41
2022/01/22 00:49:55;;;;;;;;;;;;;;;18.28;42.58;101232.09;2083244;28;19924;-41
2022/01/22 00:50:57;;;;;;;;;;;;;;;18.28;42.53;101237.56;2081946;28;20390;-44
2022/01/22 00:51:57;;;;;;;;;;;;;;;18.30;42.58;101241.03;2081669;28;19920;-42
2022/01/22 00:52:57;;;;;;;;;;;;;;;18.29;42.58;101239.28;2083618;28;19955;-41
2022/01/22 00:53:58;;;;;;;;;;;;;;;18.27;42.70;101233.06;2078827;28;19908;-41
2022/01/22 00:54:58;;;;;;;;;;;;;;;18.28;42.60;101234.81;2081176;28;20013;-42
2022/01/22 00:55:59;;;;;;;;;;;;;;;18.28;42.43;101237.56;2080570;28;19944;-41
2022/01/22 00:56:59;;;;;;;;;;;;;;;18.27;42.40;101234.94;2081438;28;19994;-41
2022/01/22 00:57:59;;;;;;;;;;;;;;;18.27;42.71;101237.66;2081783;28;20274;-41
2022/01/22 00:59:00;;;;;;;;;;;;;;;18.27;42.59;101235.78;2080597;28;19912;-41
2022/01/22 01:00:00;;;;;;;;;;;;;;;18.25;42.49;101235.06;2083807;28;19921;-41
2022/01/22 01:01:00;;;;;;;;;;;;;;;18.24;42.62;101225.13;2083155;28;19936;-42
2022/01/22 01:02:01;;;;;;;;;;;;;;;18.25;42.59;101226.88;2082078;28;19920;-41
2022/01/22 01:03:01;;;;;;;;;;;;;;;18.24;42.62;101227.84;2083444;28;19920;-41
2022/01/22 01:04:03;;;;;;;;;;;;;;;18.24;42.44;101230.59;2080267;28;19927;-41
2022/01/22 01:05:05;;;;;;;;;;;;;;;18.24;42.48;101224.25;2077658;28;20036;-41
2022/01/22 01:06:05;;;;;;;;;;;;;;;18.25;42.58;101226.00;2081501;28;19920;-42
2022/01/22 01:07:06;;;;;;;;;;;;;;;18.22;42.52;101227.09;2080640;28;20010;-41
2022/01/22 01:08:06;;;;;;;;;;;;;;;18.24;42.68;101227.84;2081681;28;19912;-41
2022/01/22 01:09:08;;;;;;;;;;;;;;;18.21;42.58;101222.63;2081712;28;20209;-41
2022/01/22 01:10:12;;;;;;;;;;;;;;;18.23;42.53;101223.41;2083000;28;20043;-41
2022/01/22 01:11:14;;;;;;;;;;;;;;;18.22;42.52;101227.09;2084370;28;19928;-42
2022/01/22 01:12:15;;;;;;;;;;;;;;;18.23;42.32;101225.22;2080434;28;20222;-42
2022/01/22 01:13:15;;;;;;;;;;;;;;;18.23;42.57;101223.41;2081371;28;19920;-41
2022/01/22 01:14:23;;;;;;;;;;;;;;;18.24;42.54;101224.25;2081327;28;19920;-41
2022/01/22 01:15:38;;;;;;;;;;;;;;;18.24;42.44;101227.00;2082724;28;19924;-41
2022/01/22 01:34:14;;;;;;;;;;;;;;;18.21;42.41;101220.78;2079873;28;19924;-41
2022/01/22 01:35:15;;;;;;;;;;;;;;;18.21;42.28;101230.81;2083303;28;19920;-41
2022/01/22 01:36:15;;;;;;;;;;;;;;;18.21;42.05;101228.09;2080903;28;19908;-41
2022/01/22 01:37:18;;;;;;;;;;;;;;;18.20;42.26;101218.16;2084924;28;19928;-41
2022/01/22 01:38:21;;;;;;;;;;;;;;;18.20;42.36;101223.59;2078713;28;19956;-41
2022/01/22 01:39:32;;;;;;;;;;;;;;;18.21;42.07;101225.38;2077890;28;19924;-41
2022/01/22 01:40:36;;;;;;;;;;;;;;;18.21;42.37;101219.91;2082081;28;20050;-41
2022/01/22 01:41:50;;;;;;;;;;;;;;;18.21;42.25;101225.38;2079378;28;19917;-41
2022/01/22 01:43:54;;;;;;;;;;;;;;;18.23;42.13;101228.84;2080711;28;19997;-41
2022/01/22 01:44:56;;;;;;;;;;;;;;;18.24;42.19;101227.00;2084196;28;20268;-42
2022/01/22 01:45:57;;;;;;;;;;;;;;;18.24;42.03;101232.44;2081775;28;19986;-41
2022/01/22 01:46:59;;;;;;;;;;;;;;;18.25;42.18;101232.34;2082456;28;20009;-39
2022/01/22 01:48:05;;;;;;;;;;;;;;;18.26;42.00;101233.22;2083422;28;19916;-40
2022/01/22 01:49:05;;;;;;;;;;;;;;;18.25;41.96;101237.81;2081621;28;19919;-41
2022/01/22 01:50:06;;;;;;;;;;;;;;;18.26;42.08;101239.53;2081666;28;19920;-42
2022/01/22 01:51:07;;;;;;;;;;;;;;;18.26;41.90;101239.53;2083486;28;20013;-42
2022/01/22 01:52:12;;;;;;;;;;;;;;;18.27;42.07;101238.53;2080280;28;19979;-41
2022/01/22 01:53:25;;;;;;;;;;;;;;;18.27;41.98;101240.41;2081345;28;19966;-41
2022/01/22 01:54:33;;;;;;;;;;;;;;;18.27;41.97;101235.78;2081823;28;20235;-42
2022/01/22 01:57:27;;;;;;;;;;;;;;;18.26;41.78;101234.06;2083444;28;20339;-42
2022/01/22 01:58:17;;;;;;;;;;;;;;;18.23;42.09;101226.13;2084732;28;19920;-41
2022/01/22 01:59:18;;;;;;;;;;;;;;;18.23;41.92;101227.97;2080688;28;19925;-41
2022/01/22 02:00:23;;;;;;;;;;;;;;;18.21;42.13;101223.50;2080730;28;19921;-41
2022/01/22 02:01:23;;;;;;;;;;;;;;;18.22;42.03;101221.63;2083527;28;19925;-41
2022/01/22 02:02:25;;;;;;;;;;;;;;;18.22;41.98;101227.09;2081231;28;19924;-41
2022/01/22 02:03:26;;;;;;;;;;;;;;;18.21;41.97;101230.81;2084004;28;19963;-41
2022/01/22 02:04:26;;;;;;;;;;;;;;;18.20;41.86;101223.59;2080407;28;19920;-41
2022/01/22 02:05:27;;;;;;;;;;;;;;;18.20;41.78;101218.16;2078515;28;19982;-41
2022/01/22 02:06:27;;;;;;;;;;;;;;;18.21;41.97;101230.81;2082569;28;19917;-41
2022/01/22 02:07:28;;;;;;;;;;;;;;;18.20;41.95;101229.06;2080327;28;19920;-41
2022/01/22 02:08:28;;;;;;;;;;;;;;;18.20;41.83;101229.97;2081710;28;20159;-41
2022/01/22 02:09:29;;;;;;;;;;;;;;;18.20;41.96;101223.59;2081073;28;19930;-41
2022/01/22 02:10:33;;;;;;;;;;;;;;;18.20;41.83;101223.59;2084044;28;20294;-41
2022/01/22 02:11:34;;;;;;;;;;;;;;;18.20;41.99;101229.06;2082429;28;20017;-41
2022/01/22 02:23:57;;;;;;;;;;;;;;;18.24;41.69;101225.13;2080186;28;19932;-41
2022/01/22 02:24:36;;;;;;;;;;;;;;;18.22;41.86;101227.09;2076843;28;19920;-42
2022/01/22 02:25:36;;;;;;;;;;;;;;;18.23;41.63;101228.84;2082762;28;19959;-42
2022/01/22 02:26:37;;;;;;;;;;;;;;;18.22;41.62;101238.00;2080266;28;19924;-41
2022/01/22 02:27:37;;;;;;;;;;;;;;;18.21;41.64;101230.81;2081221;28;20180;-42
2022/01/22 02:28:39;;;;;;;;;;;;;;;18.21;41.72;101233.56;2082049;28;20153;-41
2022/01/22 02:29:39;;;;;;;;;;;;;;;18.20;41.72;101223.59;2080571;28;20391;-41
2022/01/22 02:30:43;;;;;;;;;;;;;;;18.20;41.64;101229.97;2079106;28;19917;-41
2022/01/22 02:32:01;;;;;;;;;;;;;;;18.20;41.88;101223.59;2083051;28;19928;-41
2022/01/22 02:34:37;;;;;;;;;;;;;;;18.20;41.62;101218.16;2081456;28;19924;-42
2022/01/22 02:36:03;;;;;;;;;;;;;;;18.20;41.73;101223.59;2079123;28;20314;-41
2022/01/22 02:37:03;;;;;;;;;;;;;;;18.21;41.41;101226.22;2082877;28;19923;-42
2022/01/22 02:38:11;;;;;;;;;;;;;;;18.20;41.77;101229.06;2084477;28;19931;-43
2022/01/22 02:39:19;;;;;;;;;;;;;;;18.22;41.54;101227.09;2077641;28;20214;-53
2022/01/22 02:41:26;;;;;;;;;;;;;;;18.23;41.68;101219.78;2082384;28;20268;-42
2022/01/22 02:42:30;;;;;;;;;;;;;;;18.23;41.38;101217.94;2083222;28;20051;-41
2022/01/22 02:43:32;;;;;;;;;;;;;;;18.26;41.43;101220.44;2078419;28;20399;-42
2022/01/22 02:44:34;;;;;;;;;;;;;;;18.28;41.43;101220.31;2081466;28;19958;-41
2022/01/22 02:45:34;;;;;;;;;;;;;;;18.27;41.53;101218.56;2081241;28;19927;-41
2022/01/22 02:46:38;;;;;;;;;;;;;;;18.30;41.30;101219.22;2083628;28;20325;-41
2022/01/22 02:47:38;;;;;;;;;;;;;;;18.30;41.23;101219.22;2083260;28;19973;-41
2022/01/22 02:48:38;;;;;;;;;;;;;;;18.30;41.25;101219.22;2080895;28;19920;-41
2022/01/22 02:49:39;;;;;;;;;;;;;;;18.32;41.41;101222.66;2080573;28;20072;-41
2022/01/22 02:50:40;;;;;;;;;;;;;;;18.33;41.32;101218.97;2083069;28;20034;-41
2022/01/22 02:51:40;;;;;;;;;;;;;;;18.33;41.36;101213.50;2080984;28;19916;-41
2022/01/22 02:52:40;;;;;;;;;;;;;;;18.33;41.24;101224.44;2083533;28;19942;-42
2022/01/22 02:53:41;;;;;;;;;;;;;;;18.34;41.05;101225.28;2081887;28;19939;-41
2022/01/22 02:54:41;;;;;;;;;;;;;;;18.34;41.31;101228.03;2081178;28;19944;-41
2022/01/22 02:55:43;;;;;;;;;;;;;;;18.35;41.19;101222.47;2080376;28;19924;-42
2022/01/22 02:56:43;;;;;;;;;;;;;;;18.35;41.10;101227.06;2083125;28;19927;-41
2022/01/22 02:57:44;;;;;;;;;;;;;;;18.34;41.13;101231.63;2079907;28;20326;-41
2022/01/22 02:58:45;;;;;;;;;;;;;;;18.33;41.13;101229.88;2079774;28;20276;-41
2022/01/22 02:59:45;;;;;;;;;;;;;;;18.32;41.07;101225.41;2081330;28;19931;-42
2022/01/22 03:00:45;;;;;;;;;;;;;;;18.32;41.24;101228.13;2080345;28;20307;-41
2022/01/22 03:01:46;;;;;;;;;;;;;;;18.29;41.35;101222.91;2083299;28;19920;-42
2022/01/22 03:02:48;;;;;;;;;;;;;;;18.29;41.13;101228.38;2083397;28;20294;-41
2022/01/22 03:03:48;;;;;;;;;;;;;;;18.29;41.39;101230.22;2083130;28;20023;-42
2022/01/22 03:04:48;;;;;;;;;;;;;;;18.29;41.23;101231.09;2082110;28;19917;-41
2022/01/22 03:05:49;;;;;;;;;;;;;;;18.29;41.21;101220.19;2084215;28;19986;-41
2022/01/22 03:06:50;;;;;;;;;;;;;;;18.29;41.16;101222.91;2080461;28;20126;-41
2022/01/22 03:07:53;;;;;;;;;;;;;;;18.29;41.26;101217.44;2080951;28;20436;-41
2022/01/22 03:08:54;;;;;;;;;;;;;;;18.28;41.29;101215.72;2081145;28;20121;-41
2022/01/22 03:10:00;;;;;;;;;;;;;;;18.27;41.24;101216.69;2083069;28;20646;-41
2022/01/22 03:11:05;;;;;;;;;;;;;;;18.27;41.32;101213.97;2082977;28;20258;-41
2022/01/22 03:18:16;;;;;;;;;;;;;;;18.31;41.05;101220.94;2082243;28;19939;-42
2022/01/22 03:19:33;;;;;;;;;;;;;;;18.31;41.06;101210.03;2080408;28;19924;-41
2022/01/22 03:20:58;;;;;;;;;;;;;;;18.31;41.10;101210.03;2082473;28;19920;-41
2022/01/22 03:22:14;;;;;;;;;;;;;;;18.32;41.14;101210.88;2083350;28;19920;-42
2022/01/22 03:27:23;;;;;;;;;;;;;;;18.31;40.97;101226.41;2074594;28;20037;-41
2022/01/22 03:28:28;;;;;;;;;;;;;;;18.28;41.09;101221.19;2078191;28;20342;-41
2022/01/22 03:29:34;;;;;;;;;;;;;;;18.28;41.06;101225.78;2079933;28;20332;-41
2022/01/22 03:30:34;;;;;;;;;;;;;;;18.27;40.96;101230.34;2080520;28;20246;-41
2022/01/22 03:31:36;;;;;;;;;;;;;;;18.27;41.16;101227.59;2086424;28;19927;-42
2022/01/22 03:32:42;;;;;;;;;;;;;;;18.27;41.03;101234.94;2082944;28;19964;-41
2022/01/22 03:33:42;;;;;;;;;;;;;;;18.25;40.96;101226.88;2082309;28;20315;-41
2022/01/22 03:34:54;;;;;;;;;;;;;;;18.26;41.12;101233.22;2083264;28;19927;-42
2022/01/22 03:35:56;;;;;;;;;;;;;;;18.23;41.05;101217.94;2084396;28;19959;-41
2022/01/22 03:36:57;;;;;;;;;;;;;;;18.23;41.13;101217.94;2084084;28;19993;-42
2022/01/22 03:37:58;;;;;;;;;;;;;;;18.23;41.04;101217.94;2080159;28;19921;-41
2022/01/22 03:38:58;;;;;;;;;;;;;;;18.23;41.03;101223.41;2083945;28;19924;-41
2022/01/22 03:39:58;;;;;;;;;;;;;;;18.23;41.19;101226.13;2082984;28;19921;-42
2022/01/22 03:40:59;;;;;;;;;;;;;;;18.21;41.12;101220.78;2081817;28;19917;-41
2022/01/22 03:41:59;;;;;;;;;;;;;;;18.22;40.94;101216.19;2082073;28;20219;-41
2022/01/22 03:43:00;;;;;;;;;;;;;;;18.22;41.19;101210.72;2079922;28;19968;-43
2022/01/22 03:44:00;;;;;;;;;;;;;;;18.23;41.12;101214.31;2081710;28;20476;-42
2022/01/22 03:45:02;;;;;;;;;;;;;;;18.23;40.99;101217.94;2083396;28;19927;-41
2022/01/22 03:46:02;;;;;;;;;;;;;;;18.24;41.04;101222.41;2084081;28;20440;-42
2022/01/22 03:47:04;;;;;;;;;;;;;;;18.23;41.11;101214.31;2083979;28;20242;-42
2022/01/22 03:48:04;;;;;;;;;;;;;;;18.25;40.80;101218.69;2083980;28;20348;-41
2022/01/22 03:49:05;;;;;;;;;;;;;;;18.26;40.96;101223.16;2082282;28;19924;-42
2022/01/22 03:50:07;;;;;;;;;;;;;;;18.26;41.09;101220.44;2081347;28;20007;-42
2022/01/22 03:51:07;;;;;;;;;;;;;;;18.26;41.08;101214.97;2084279;28;19930;-41
2022/01/22 03:52:09;;;;;;;;;;;;;;;18.23;40.88;101220.66;2082468;28;20008;-41
2022/01/22 03:53:09;;;;;;;;;;;;;;;18.26;41.00;101220.44;2078764;28;20331;-41
2022/01/22 03:54:09;;;;;;;;;;;;;;;18.26;40.91;101223.16;2082168;28;19945;-41
2022/01/22 03:55:19;;;;;;;;;;;;;;;18.26;40.87;101216.81;2083858;28;19920;-41
2022/01/22 03:56:20;;;;;;;;;;;;;;;18.26;40.89;101211.38;2082788;28;20693;-41
2022/01/22 03:57:22;;;;;;;;;;;;;;;18.26;40.72;101211.38;2084021;28;20731;-41
2022/01/22 03:58:23;;;;;;;;;;;;;;;18.26;40.89;101217.69;2081217;28;20012;-42
2022/01/22 03:59:23;;;;;;;;;;;;;;;18.24;40.87;101216.94;2083685;28;19925;-41
2022/01/22 04:00:24;;;;;;;;;;;;;;;18.22;41.10;101216.19;2081640;28;19971;-41
2022/01/22 04:03:04;;;;;;;;;;;;;;;18.21;41.00;101214.44;2083845;28;20331;-41
2022/01/22 04:04:11;;;;;;;;;;;;;;;18.19;41.13;101208.22;2084418;28;19920;-42
2022/01/22 04:05:11;;;;;;;;;;;;;;;18.19;40.94;101216.41;2083209;28;19921;-41
2022/01/22 04:08:44;;;;;;;;;;;;;;;18.15;41.13;101221.25;2080441;28;19920;-41
2022/01/22 04:09:45;;;;;;;;;;;;;;;18.15;40.84;101218.53;2084720;28;19925;-41
2022/01/22 04:10:46;;;;;;;;;;;;;;;18.15;40.99;101221.25;2081477;28;19978;-41
2022/01/22 04:11:47;;;;;;;;;;;;;;;18.14;41.00;101218.63;2081561;28;20337;-41
2022/01/22 04:12:54;;;;;;;;;;;;;;;18.15;40.93;101226.72;2081052;28;19920;-41
2022/01/22 04:14:00;;;;;;;;;;;;;;;18.14;40.94;101224.09;2083234;28;20203;-41
2022/01/22 04:15:03;;;;;;;;;;;;;;;18.15;40.94;101220.34;2082487;28;20227;-41
2022/01/22 04:16:04;;;;;;;;;;;;;;;18.14;41.05;101224.09;2083770;28;19971;-41
2022/01/22 04:25:06;;;;;;;;;;;;;;;18.17;40.82;101215.66;2069766;28;19920;-42
2022/01/22 04:26:54;;;;;;;;;;;;;;;18.15;40.92;101210.34;2081822;28;19920;-41
2022/01/22 04:27:30;;;;;;;;;;;;;;;18.13;40.84;101211.44;2080198;28;20222;-42
2022/01/22 04:28:31;;;;;;;;;;;;;;;18.14;41.00;101218.63;2082579;28;19913;-41
2022/01/22 04:29:31;;;;;;;;;;;;;;;18.13;40.84;101227.81;2079704;28;19956;-41
2022/01/22 04:30:32;;;;;;;;;;;;;;;18.11;40.99;101222.47;2080468;28;20401;-42
2022/01/22 04:31:32;;;;;;;;;;;;;;;18.11;41.44;101218.88;2078770;28;20018;-41
2022/01/22 04:32:33;;;;;;;;;;;;;;;18.11;41.21;101221.59;2084095;28;20335;-41
2022/01/22 04:33:33;;;;;;;;;;;;;;;18.12;41.35;101226.06;2081719;28;19920;-40
2022/01/22 04:34:34;;;;;;;;;;;;;;;18.09;41.53;101226.31;2082269;28;19955;-41
2022/01/22 04:35:34;;;;;;;;;;;;;;;18.08;41.42;101222.72;2085469;28;20338;-41
2022/01/22 04:36:35;;;;;;;;;;;;;;;18.08;41.33;101225.44;2081741;28;19927;-41
2022/01/22 04:37:35;;;;;;;;;;;;;;;18.09;41.38;101232.63;2081288;28;19924;-41
2022/01/22 04:38:35;;;;;;;;;;;;;;;18.08;41.37;101230.88;2082994;28;20810;-41
2022/01/22 04:39:36;;;;;;;;;;;;;;;18.08;41.21;101227.25;2082650;28;20005;-40
2022/01/22 04:40:37;;;;;;;;;;;;;;;18.07;41.37;101233.72;2082930;28;19928;-41
2022/01/22 04:41:37;;;;;;;;;;;;;;;18.06;41.33;101223.81;2079695;28;20383;-41
2022/01/22 04:42:39;;;;;;;;;;;;;;;18.07;41.29;101225.53;2077964;28;19921;-41
2022/01/22 04:43:42;;;;;;;;;;;;;;;18.05;41.27;101217.44;2083918;28;19924;-40
2022/01/22 04:44:55;;;;;;;;;;;;;;;18.07;41.10;101211.91;2078731;28;20351;-41
2022/01/22 04:47:26;;;;;;;;;;;;;;;18.07;41.14;101215.50;2082440;28;20331;-40
2022/01/22 04:55:01;;;;;;;;;;;;;;;18.09;41.02;101231.75;2079980;28;19920;-41
2022/01/22 04:56:01;;;;;;;;;;;;;;;18.10;40.91;101228.03;2077869;28;19940;-41
2022/01/22 04:57:02;;;;;;;;;;;;;;;18.09;40.87;101231.75;2083242;28;19983;-41
2022/01/22 04:58:03;;;;;;;;;;;;;;;18.10;40.97;101225.28;2082297;28;19975;-40
2022/01/22 04:59:04;;;;;;;;;;;;;;;18.08;41.16;101219.06;2083947;28;20331;-40
2022/01/22 05:00:10;;;;;;;;;;;;;;;18.07;41.16;101222.81;2077185;28;19932;-41
2022/01/22 05:01:10;;;;;;;;;;;;;;;18.06;41.22;101221.09;2083030;28;20313;-40
2022/01/22 05:02:11;;;;;;;;;;;;;;;18.05;41.01;101222.06;2082844;28;19969;-40
2022/01/22 05:03:11;;;;;;;;;;;;;;;18.03;41.16;101222.19;2079386;28;19921;-40
2022/01/22 05:04:12;;;;;;;;;;;;;;;18.02;41.09;101228.59;2079781;28;19920;-40
2022/01/22 05:05:12;;;;;;;;;;;;;;;18.02;41.09;101230.47;2080775;28;19955;-40
2022/01/22 05:06:12;;;;;;;;;;;;;;;18.02;40.98;101236.78;2080691;28;20249;-40
2022/01/22 05:07:13;;;;;;;;;;;;;;;18.02;41.04;101244.13;2081924;28;20011;-40
2022/01/22 05:08:13;;;;;;;;;;;;;;;18.01;41.33;101245.97;2083454;28;19921;-40
2022/01/22 05:09:13;;;;;;;;;;;;;;;18.00;41.10;101245.09;2082237;28;19920;-40
2022/01/22 05:10:13;;;;;;;;;;;;;;;18.00;41.25;101238.75;2081961;28;19920;-40
2022/01/22 05:11:14;;;;;;;;;;;;;;;17.99;41.21;101240.63;2079008;28;19917;-40
2022/01/22 05:12:14;;;;;;;;;;;;;;;17.99;41.02;101245.22;2087166;28;19982;-41
2022/01/22 05:13:15;;;;;;;;;;;;;;;17.97;41.02;101239.88;2078327;28;19917;-41
2022/01/22 05:14:15;;;;;;;;;;;;;;;17.96;41.13;101238.13;2080577;28;19921;-41
2022/01/22 05:15:17;;;;;;;;;;;;;;;17.97;41.16;101239.00;2078217;28;19947;-41
2022/01/22 05:16:18;;;;;;;;;;;;;;;17.98;41.08;101233.44;2079524;28;19930;-40
2022/01/22 05:17:19;;;;;;;;;;;;;;;17.97;41.12;101239.00;2079215;28;19928;-41
2022/01/22 05:18:19;;;;;;;;;;;;;;;17.98;40.94;101236.16;2080563;28;19919;-41
2022/01/22 05:19:28;;;;;;;;;;;;;;;18.00;41.09;101238.75;2080500;28;19984;-41
2022/01/22 05:20:33;;;;;;;;;;;;;;;18.00;41.04;101239.63;2082363;28;20358;-41
2022/01/22 05:21:36;;;;;;;;;;;;;;;18.04;41.03;101233.97;2080760;28;20046;-41
2022/01/22 05:23:44;;;;;;;;;;;;;;;18.05;40.90;101235.69;2082216;28;20048;-41
2022/01/22 05:24:49;;;;;;;;;;;;;;;18.05;40.85;101242.00;2082459;28;19964;-41
2022/01/22 05:26:02;;;;;;;;;;;;;;;18.05;41.07;101242.00;2084638;28;20402;-41
2022/01/22 05:31:40;;;;;;;;;;;;;;;18.04;40.96;101250.34;2083623;28;19979;-41
2022/01/22 05:32:59;;;;;;;;;;;;;;;18.03;40.92;101254.03;2078829;28;19925;-40
2022/01/22 05:37:04;;;;;;;;;;;;;;;18.02;40.81;101268.66;2082308;28;20515;-40
2022/01/22 05:38:06;;;;;;;;;;;;;;;18.00;40.92;101269.63;2078960;28;19927;-41
2022/01/22 05:39:11;;;;;;;;;;;;;;;18.00;40.85;101263.31;2081484;28;19928;-41
2022/01/22 05:40:12;;;;;;;;;;;;;;;17.99;40.85;101265.19;2083131;28;20252;-40
2022/01/22 05:41:12;;;;;;;;;;;;;;;17.99;40.77;101270.63;2080111;28;19920;-41
2022/01/22 05:42:12;;;;;;;;;;;;;;;17.98;40.75;101268.91;2079233;28;20019;-40
2022/01/22 05:43:13;;;;;;;;;;;;;;;17.97;40.67;101264.41;2082292;28;19913;-41
2022/01/22 05:44:13;;;;;;;;;;;;;;;17.95;40.84;101258.19;2080240;28;19921;-42
2022/01/22 05:45:14;;;;;;;;;;;;;;;17.97;40.77;101264.41;2079141;28;19924;-40
2022/01/22 05:46:14;;;;;;;;;;;;;;;17.98;40.78;101266.19;2079430;28;20343;-40
2022/01/22 05:47:20;;;;;;;;;;;;;;;17.98;40.93;101263.44;2080025;28;19920;-41
2022/01/22 05:48:21;;;;;;;;;;;;;;;17.98;40.66;101268.91;2077517;28;20229;-40
2022/01/22 05:49:24;;;;;;;;;;;;;;;17.97;40.73;101267.16;2081158;28;19959;-41
2022/01/22 05:50:32;;;;;;;;;;;;;;;17.98;40.86;101268.91;2082478;28;20043;-41
2022/01/22 05:51:35;;;;;;;;;;;;;;;17.98;40.58;101274.38;2082310;28;20398;-41
2022/01/22 05:52:51;;;;;;;;;;;;;;;18.00;40.78;101271.50;2078829;28;20230;-41
2022/01/22 05:59:38;;;;;;;;;;;;;;;17.97;40.62;101272.59;2078403;28;19924;-41
2022/01/22 06:00:38;;;;;;;;;;;;;;;17.97;40.50;101272.59;2081459;28;19920;-40
2022/01/22 06:01:38;;;;;;;;;;;;;;;17.96;40.48;101281.78;2080629;28;19928;-40
2022/01/22 06:02:39;;;;;;;;;;;;;;;17.96;40.46;101272.75;2081643;28;20012;-41
2022/01/22 06:03:39;;;;;;;;;;;;;;;17.95;40.58;101274.56;2082226;28;20130;-41
2022/01/22 06:04:40;;;;;;;;;;;;;;;17.93;40.56;101271.09;2080463;28;20402;-40
2022/01/22 06:05:41;;;;;;;;;;;;;;;17.94;40.58;101283.75;2080093;28;20398;-40
2022/01/22 06:06:41;;;;;;;;;;;;;;;17.93;40.53;101287.47;2082328;28;20327;-40
2022/01/22 06:07:41;;;;;;;;;;;;;;;17.93;40.63;101282.03;2081613;28;19921;-41
2022/01/22 06:08:49;;;;;;;;;;;;;;;17.93;40.47;101290.22;2081329;28;19916;-41
2022/01/22 06:11:08;;;;;;;;;;;;;;;17.92;40.61;101291.16;2077717;28;19935;-40
2022/01/22 06:13:13;;;;;;;;;;;;;;;17.91;40.70;101294.91;2080335;28;19920;-40
2022/01/22 06:14:13;;;;;;;;;;;;;;;17.91;40.66;101297.63;2080880;28;20281;-41
2022/01/22 06:15:14;;;;;;;;;;;;;;;17.91;40.61;101297.63;2079105;28;20311;-40
2022/01/22 06:16:15;;;;;;;;;;;;;;;17.90;40.70;101293.13;2078360;28;20339;-40
2022/01/22 06:17:15;;;;;;;;;;;;;;;17.90;40.59;101290.41;2079784;28;19931;-40
2022/01/22 06:18:16;;;;;;;;;;;;;;;17.91;40.49;101283.97;2083231;28;19913;-40
2022/01/22 06:19:16;;;;;;;;;;;;;;;17.92;40.69;101291.16;2080773;28;19967;-41
2022/01/22 06:20:16;;;;;;;;;;;;;;;17.93;40.44;101290.22;2081967;28;19932;-41
2022/01/22 06:21:17;;;;;;;;;;;;;;;17.96;40.15;101298.16;2081736;28;20381;-41
2022/01/22 06:22:17;;;;;;;;;;;;;;;17.97;40.16;101294.44;2082197;28;19960;-42
2022/01/22 06:23:17;;;;;;;;;;;;;;;17.99;40.21;101292.47;2083648;28;19921;-41
2022/01/22 06:24:21;;;;;;;;;;;;;;;18.02;40.02;101295.94;2088652;28;19983;-41
2022/01/22 06:25:21;;;;;;;;;;;;;;;18.03;40.05;101298.59;2091936;28;20848;-41
2022/01/22 06:26:22;;;;;;;;;;;;;;;18.03;39.89;101293.13;2080837;28;20275;-40
2022/01/22 06:27:22;;;;;;;;;;;;;;;18.05;40.13;101295.72;2078629;28;19935;-41
2022/01/22 06:28:22;;;;;;;;;;;;;;;18.05;39.77;101301.16;2083494;28;19924;-42
2022/01/22 06:29:22;;;;;;;;;;;;;;;18.07;39.99;101304.66;2082029;28;19927;-40
2022/01/22 06:30:23;;;;;;;;;;;;;;;18.08;39.69;101300.94;2077934;28;20726;-41
2022/01/22 06:31:23;;;;;;;;;;;;;;;18.09;39.85;101300.84;2083473;28;20404;-41
2022/01/22 06:32:23;;;;;;;;;;;;;;;18.10;39.66;101309.88;2078798;28;20335;-41
2022/01/22 06:33:24;;;;;;;;;;;;;;;18.10;39.63;101309.88;2079015;28;19928;-41
2022/01/22 06:34:24;;;;;;;;;;;;;;;18.11;39.74;101303.47;2082617;28;20311;-41
2022/01/22 06:35:24;;;;;;;;;;;;;;;18.12;39.62;101307.91;2077318;28;20363;-41
2022/01/22 06:36:25;;;;;;;;;;;;;;;18.13;39.69;101316.00;2083232;28;19959;-41
2022/01/22 06:37:26;;;;;;;;;;;;;;;18.14;39.72;101311.41;2079577;28;19917;-41
2022/01/22 06:38:27;;;;;;;;;;;;;;;18.14;39.67;101306.81;2078326;28;19920;-41
2022/01/22 06:39:27;;;;;;;;;;;;;;;18.15;39.59;101310.41;2083137;28;20398;-41
2022/01/22 06:41:46;;;;;;;;;;;;;;;18.17;39.46;101314.75;2079841;28;20015;-41
2022/01/22 06:42:47;;;;;;;;;;;;;;;18.18;39.62;101318.41;2079175;28;19981;-41
2022/01/22 06:43:47;;;;;;;;;;;;;;;18.18;39.55;101318.41;2080729;28;20330;-41